CPW6 weather

Midland (Huronia District Hospital) Heliport
Midland, Ontario, Canada

Public forecast

Using degrees Celsius for public forecast. Weather courtesy of forecast.io.

METAR (pilot weather report)

Closest report is CFB Borden, 28.2 nm (52.3 km) S. Retrieved 2019/05/21 12:00 UTC (9 minutes ago):

CYBN 211200Z AUTO 34010G16KT 9SM CLR 09/04 A3010 RMK SLP197

TAF (pilot weather forecast)

Closest forecast is CFB Borden, 28.2 nm (52.3 km) S. Retrieved 2019/05/21 12:33 UTC (0 seconds ago):

TAF TAF CYBN 211130Z 2112/2124 33010KT P6SM SKC BECMG 2112/2114 33012G22KT BECMG 2117/2119 34012KT RMK FCST BASED ON AUTO OBS. NXT FCST BY 211800Z